Cherokee, Kansas
Current Conditions -  °F | °C
As of 12:15 PM on Thursday 30 Oct 2014 (Local Time) from KPTS Reporting Station
Clear Clear  
Wind Chill: 64°   Ceiling: Unl
Heat Index: 64°   Visibility: 10mi
Dew Point: 45°   Wind: 12mph
Humidity: 50%   Direction: 290°WNW
Pressure: 30.04"   Gusts: 23mph
Location:  37.35°N, 94.81°W
Report Text: KPTS 301715Z AUTO 29010G20KT 260V320 10SM CLR 18/07 A3004 RMK AO2 T01760070
Loading
Personal Weather Stations






























Interactive Weather Map
Tropical Storm Tracking
New forecast layout! Learn more

10-Day Weather Forecast

Advertisements
Track Severe Weather on mobile